createdAt,value
2024-05-09T00:02:27.482Z,82.94
2024-05-09T00:05:00.051Z,83.00
2024-05-09T00:07:30.015Z,83.08
2024-05-09T00:09:59.901Z,82.85
2024-05-09T00:12:29.736Z,83.01
2024-05-09T00:14:59.576Z,83.09
2024-05-09T00:17:29.540Z,82.71
2024-05-09T00:20:02.234Z,82.45
2024-05-09T00:22:32.158Z,82.87
2024-05-09T00:25:01.888Z,83.38
2024-05-09T00:27:31.644Z,83.43
2024-05-09T00:30:01.545Z,83.75
2024-05-09T00:32:31.477Z,83.88
2024-05-09T00:35:04.042Z,84.41
2024-05-09T00:37:33.873Z,84.19
2024-05-09T00:40:05.792Z,84.22
2024-05-09T00:42:40.664Z,84.18
2024-05-09T00:45:10.697Z,84.51
2024-05-09T00:47:41.213Z,84.14
2024-05-09T00:50:19.380Z,84.06
2024-05-09T00:52:53.244Z,83.80
2024-05-09T00:55:24.036Z,83.70
2024-05-09T00:57:54.513Z,83.66
2024-05-09T01:00:31.567Z,83.84
2024-05-09T01:03:09.490Z,83.73
2024-05-09T01:05:44.188Z,83.72
2024-05-09T01:08:14.570Z,83.97
2024-05-09T01:10:46.112Z,83.84
2024-05-09T01:13:17.903Z,83.97
2024-05-09T01:15:48.186Z,83.96
2024-05-09T01:18:18.689Z,83.73
2024-05-09T01:20:51.168Z,84.03
2024-05-09T01:23:23.702Z,84.09
2024-05-09T01:25:53.692Z,84.18
2024-05-09T01:28:23.546Z,84.03
2024-05-09T01:30:53.241Z,84.13
2024-05-09T01:33:23.203Z,83.94
2024-05-09T01:35:53.132Z,84.10
2024-05-09T01:38:25.537Z,84.04
2024-05-09T01:40:55.497Z,84.34
2024-05-09T01:43:25.338Z,84.37
2024-05-09T01:45:55.067Z,84.85
2024-05-09T01:48:25.072Z,84.63
2024-05-09T01:50:54.988Z,84.48
2024-05-09T01:53:27.471Z,84.61
2024-05-09T01:55:57.304Z,84.97
2024-05-09T01:58:27.042Z,85.62
2024-05-09T02:00:57.139Z,86.08
2024-05-09T02:03:27.146Z,85.81
2024-05-09T02:05:57.080Z,85.98
2024-05-09T02:08:29.566Z,85.90
2024-05-09T02:10:59.448Z,85.55
2024-05-09T02:13:29.333Z,84.78
2024-05-09T02:15:59.401Z,84.96
2024-05-09T02:18:29.209Z,85.11
2024-05-09T02:20:59.095Z,85.55
2024-05-09T02:23:31.641Z,85.26
2024-05-09T02:26:01.545Z,85.54
2024-05-09T02:28:31.397Z,84.79
2024-05-09T02:31:01.186Z,84.89
2024-05-09T02:33:31.576Z,85.18
2024-05-09T02:36:01.512Z,85.17
2024-05-09T02:38:31.528Z,85.62
2024-05-09T02:41:01.406Z,85.91
2024-05-09T02:43:28.655Z,85.82
2024-05-09T02:45:58.469Z,86.67
2024-05-09T02:48:25.812Z,86.90
2024-05-09T02:50:55.787Z,86.95
2024-05-09T02:53:23.059Z,86.59
2024-05-09T02:55:55.553Z,86.54
2024-05-09T02:58:22.800Z,86.09
2024-05-09T03:00:52.677Z,86.53
2024-05-09T03:03:19.983Z,86.05
2024-05-09T03:05:50.043Z,86.18
2024-05-09T03:08:17.211Z,86.35
2024-05-09T03:10:47.060Z,86.57
2024-05-09T03:13:16.919Z,86.52
2024-05-09T03:15:47.074Z,86.55
2024-05-09T03:18:15.722Z,87.16
2024-05-09T03:20:46.464Z,87.30
2024-05-09T03:23:13.730Z,86.95
2024-05-09T03:25:43.779Z,86.31
2024-05-09T03:28:11.636Z,86.63
2024-05-09T03:30:44.140Z,86.86
2024-05-09T03:33:13.468Z,86.51
2024-05-09T03:35:44.202Z,86.47
2024-05-09T03:38:14.238Z,86.42
2024-05-09T03:40:47.895Z,86.76
2024-05-09T03:43:18.549Z,85.87
2024-05-09T03:45:50.159Z,86.30
2024-05-09T03:48:20.262Z,86.87
2024-05-09T03:50:47.723Z,87.32
2024-05-09T03:53:18.050Z,86.70
2024-05-09T03:55:47.615Z,86.82
2024-05-09T03:58:19.190Z,87.30
2024-05-09T04:00:49.078Z,87.41
2024-05-09T04:03:19.314Z,87.18
2024-05-09T04:05:46.746Z,86.98
2024-05-09T04:08:17.111Z,86.98
2024-05-09T04:10:44.457Z,87.62
2024-05-09T04:13:14.267Z,87.55
2024-05-09T04:15:41.565Z,87.27
2024-05-09T04:18:14.027Z,87.11
2024-05-09T04:20:41.630Z,87.40
2024-05-09T04:23:15.179Z,86.98
2024-05-09T04:25:45.119Z,86.86
2024-05-09T04:28:15.649Z,86.78
2024-05-09T04:30:43.435Z,86.66
2024-05-09T04:33:18.902Z,86.44
2024-05-09T04:35:46.359Z,86.78
2024-05-09T04:38:16.535Z,86.86
2024-05-09T04:40:44.003Z,87.23
2024-05-09T04:43:19.134Z,86.95
2024-05-09T04:45:46.468Z,86.95
2024-05-09T04:48:19.133Z,87.09
2024-05-09T04:50:46.566Z,86.54
2024-05-09T04:53:19.285Z,86.41
2024-05-09T04:55:46.741Z,86.10
2024-05-09T04:58:16.673Z,85.89
2024-05-09T05:00:45.035Z,85.02
2024-05-09T05:03:16.217Z,84.98
2024-05-09T05:05:46.835Z,84.49
2024-05-09T05:08:18.536Z,84.13
2024-05-09T05:10:48.397Z,84.54
2024-05-09T05:13:20.786Z,84.62
2024-05-09T05:15:51.279Z,83.17
2024-05-09T05:18:21.212Z,82.81
2024-05-09T05:20:51.450Z,82.74
2024-05-09T05:23:22.495Z,83.49
2024-05-09T05:25:51.469Z,84.20
2024-05-09T05:28:22.230Z,84.62
2024-05-09T05:30:49.912Z,84.96
2024-05-09T05:33:22.794Z,85.07
2024-05-09T05:35:53.226Z,85.07
2024-05-09T05:38:26.045Z,85.02
2024-05-09T05:40:55.416Z,85.47
2024-05-09T05:43:25.404Z,85.02
2024-05-09T05:45:52.559Z,85.25
2024-05-09T05:48:22.492Z,85.48
2024-05-09T05:50:52.542Z,84.76
2024-05-09T05:53:22.435Z,85.27
2024-05-09T05:55:49.761Z,85.13
2024-05-09T05:58:20.475Z,84.94
2024-05-09T06:00:48.266Z,85.18
2024-05-09T06:03:18.477Z,84.63
2024-05-09T06:05:46.800Z,84.61
2024-05-09T06:08:19.744Z,84.42
2024-05-09T06:10:47.086Z,84.01
2024-05-09T06:13:17.070Z,83.57
2024-05-09T06:15:44.261Z,83.55
2024-05-09T06:18:14.576Z,83.88
2024-05-09T06:20:43.713Z,82.90
2024-05-09T06:23:14.794Z,83.76
2024-05-09T06:25:44.866Z,83.32
2024-05-09T06:28:14.702Z,83.35
2024-05-09T06:30:43.197Z,83.95
2024-05-09T06:33:15.948Z,83.94
2024-05-09T06:35:44.823Z,84.06
2024-05-09T06:38:15.175Z,83.77
2024-05-09T06:40:45.174Z,84.32
2024-05-09T06:43:17.947Z,84.14
2024-05-09T06:45:48.415Z,83.64
2024-05-09T06:48:21.278Z,83.72
2024-05-09T06:50:49.808Z,83.45
2024-05-09T06:53:20.439Z,83.61
2024-05-09T06:55:50.307Z,83.60
2024-05-09T06:58:20.201Z,83.14
2024-05-09T07:00:47.684Z,82.74
2024-05-09T07:03:19.108Z,82.36
2024-05-09T07:05:48.209Z,82.91
2024-05-09T07:08:19.581Z,82.81
2024-05-09T07:10:50.651Z,82.80
2024-05-09T07:13:20.678Z,83.09
2024-05-09T07:15:47.790Z,82.06
2024-05-09T07:18:20.273Z,83.04
2024-05-09T07:20:48.986Z,84.15
2024-05-09T07:23:19.899Z,84.96
2024-05-09T07:25:50.076Z,86.05
2024-05-09T07:28:21.759Z,86.94
2024-05-09T07:30:49.000Z,86.64
2024-05-09T07:33:20.219Z,86.61
2024-05-09T07:35:51.728Z,86.57
2024-05-09T07:38:19.160Z,86.42
2024-05-09T07:40:49.444Z,86.95
2024-05-09T07:43:19.390Z,86.90
2024-05-09T07:45:53.600Z,87.18
2024-05-09T07:52:39.237Z,88.37
2024-05-09T07:53:47.471Z,89.10
2024-05-09T07:56:22.803Z,89.26
2024-05-09T07:58:54.286Z,89.64
2024-05-09T08:01:26.242Z,90.20
2024-05-09T08:03:54.235Z,90.09
2024-05-09T08:06:24.529Z,90.52
2024-05-09T08:08:51.934Z,90.35
2024-05-09T08:11:22.380Z,90.51
2024-05-09T08:13:49.693Z,90.26
2024-05-09T08:16:22.134Z,90.17
2024-05-09T08:18:49.836Z,90.72
2024-05-09T08:21:19.818Z,90.67
2024-05-09T08:23:47.121Z,90.64
2024-05-09T08:26:16.982Z,90.80
2024-05-09T08:28:44.213Z,91.05
2024-05-09T08:31:14.097Z,90.68
2024-05-09T08:33:47.130Z,90.45
2024-05-09T08:36:17.257Z,90.50
2024-05-09T08:38:44.486Z,90.73
2024-05-09T08:41:16.962Z,89.81
2024-05-09T08:43:44.646Z,89.63
2024-05-09T08:46:15.572Z,89.29
2024-05-09T08:48:46.957Z,89.36
2024-05-09T08:51:17.146Z,89.56
2024-05-09T08:53:44.339Z,88.79
2024-05-09T08:56:14.544Z,89.14
2024-05-09T08:58:42.772Z,89.07
2024-05-09T09:01:14.935Z,89.75
2024-05-09T09:03:43.794Z,88.81
2024-05-09T09:06:19.366Z,88.93
2024-05-09T09:08:47.604Z,88.60
2024-05-09T09:11:17.481Z,89.20
2024-05-09T09:13:44.657Z,89.36
2024-05-09T09:16:14.535Z,89.59
2024-05-09T09:18:44.318Z,88.74
2024-05-09T09:21:16.928Z,88.62
2024-05-09T09:23:44.169Z,89.02
2024-05-09T09:26:18.814Z,88.69
2024-05-09T09:28:46.147Z,88.27
2024-05-09T09:31:20.450Z,87.64
2024-05-09T09:33:47.883Z,87.81
2024-05-09T09:36:20.687Z,87.24
2024-05-09T09:38:48.220Z,85.68
2024-05-09T09:41:20.698Z,85.55
2024-05-09T09:43:48.552Z,85.22
2024-05-09T09:46:19.061Z,84.55
2024-05-09T09:48:48.191Z,84.68
2024-05-09T09:51:21.370Z,84.06
2024-05-09T09:53:50.671Z,83.75
2024-05-09T09:56:22.497Z,83.76
2024-05-09T09:58:51.174Z,83.32
2024-05-09T10:01:20.980Z,83.03
2024-05-09T10:03:48.508Z,83.65
2024-05-09T10:06:23.035Z,83.13
2024-05-09T10:08:50.979Z,83.60
2024-05-09T10:11:23.123Z,83.43
2024-05-09T10:13:51.845Z,81.34
2024-05-09T10:16:23.948Z,82.77
2024-05-09T10:18:51.528Z,81.12
2024-05-09T10:21:24.390Z,82.02
2024-05-09T10:23:58.975Z,81.26
2024-05-09T10:26:35.949Z,81.58
2024-05-09T10:29:12.280Z,81.60
2024-05-09T10:31:45.782Z,82.83
2024-05-09T10:34:20.937Z,82.22
2024-05-09T10:36:57.461Z,82.09
2024-05-09T10:39:25.716Z,82.13
2024-05-09T10:41:55.591Z,81.30
2024-05-09T10:44:22.995Z,81.14
2024-05-09T10:46:56.950Z,80.25
2024-05-09T10:49:24.482Z,79.97
2024-05-09T10:51:56.864Z,79.64
2024-05-09T10:54:24.203Z,80.09
2024-05-09T10:56:59.365Z,79.09
2024-05-09T10:59:33.142Z,79.45
2024-05-09T11:02:06.504Z,79.69
2024-05-09T11:04:34.999Z,78.91
2024-05-09T11:07:15.325Z,79.18
2024-05-09T11:09:43.619Z,80.31
2024-05-09T11:12:14.002Z,80.42
2024-05-09T11:14:41.179Z,80.27
2024-05-09T11:17:11.239Z,80.53
2024-05-09T11:19:39.949Z,78.48
2024-05-09T11:22:12.603Z,78.54
2024-05-09T11:24:40.391Z,80.13
2024-05-09T11:27:10.285Z,77.80
2024-05-09T11:29:39.136Z,77.67
2024-05-09T11:32:11.567Z,79.00
2024-05-09T11:34:39.175Z,77.74
2024-05-09T11:37:09.158Z,78.29
2024-05-09T11:39:39.206Z,78.44
2024-05-09T11:42:09.069Z,78.13
2024-05-09T11:44:36.244Z,78.41
2024-05-09T11:47:07.294Z,77.58
2024-05-09T11:49:34.825Z,75.68
2024-05-09T11:52:04.786Z,77.84
2024-05-09T11:54:32.411Z,77.22
2024-05-09T11:57:04.863Z,75.35
2024-05-09T11:59:32.191Z,75.51
2024-05-09T12:02:02.069Z,73.41
2024-05-09T12:04:29.526Z,74.82
2024-05-09T12:06:59.705Z,74.67
2024-05-09T12:09:26.940Z,74.62
2024-05-09T12:11:56.818Z,73.90
2024-05-09T12:14:26.785Z,72.89
2024-05-09T12:16:56.597Z,72.96
2024-05-09T12:19:23.790Z,73.49
2024-05-09T12:21:53.651Z,71.29
2024-05-09T12:24:20.935Z,73.18
2024-05-09T12:26:50.808Z,73.42
2024-05-09T12:29:18.259Z,72.74
2024-05-09T12:31:50.926Z,70.17
2024-05-09T12:34:18.298Z,70.99
2024-05-09T12:36:48.234Z,72.91
2024-05-09T12:39:15.495Z,71.09
2024-05-09T12:41:45.356Z,71.36
2024-05-09T12:44:12.481Z,69.54
2024-05-09T12:46:42.250Z,69.60
2024-05-09T12:49:13.829Z,70.99
2024-05-09T12:51:44.905Z,70.12
2024-05-09T12:54:12.325Z,69.56
2024-05-09T12:56:42.111Z,70.16
2024-05-09T12:59:09.376Z,71.73
2024-05-09T13:01:39.170Z,72.86
2024-05-09T13:04:06.691Z,72.55
2024-05-09T13:06:39.355Z,74.21
2024-05-09T13:09:06.563Z,76.01
2024-05-09T13:11:36.424Z,75.32
2024-05-09T13:14:03.869Z,73.25
2024-05-09T13:16:33.777Z,74.00
2024-05-09T13:19:01.044Z,73.93
2024-05-09T13:21:31.054Z,74.29
2024-05-09T13:24:00.945Z,75.76
2024-05-09T13:26:30.777Z,76.72
2024-05-09T13:28:57.952Z,77.95
2024-05-09T13:31:27.855Z,78.74
2024-05-09T13:33:55.294Z,79.30
2024-05-09T13:36:25.250Z,79.87
2024-05-09T13:38:52.624Z,80.57
2024-05-09T13:41:25.140Z,81.05
2024-05-09T13:43:53.669Z,81.40
2024-05-09T13:46:24.027Z,81.93
2024-05-09T13:48:51.632Z,82.36
2024-05-09T13:51:21.457Z,81.95
2024-05-09T13:53:48.572Z,81.59
2024-05-09T13:56:18.387Z,81.62
2024-05-09T13:58:50.579Z,83.15
2024-05-09T14:01:20.764Z,83.12
2024-05-09T14:03:48.231Z,83.01
2024-05-09T14:06:18.251Z,82.62
2024-05-09T14:08:45.439Z,82.61
2024-05-09T14:11:15.275Z,83.70
2024-05-09T14:13:42.497Z,84.38
2024-05-09T14:16:15.116Z,84.32
2024-05-09T14:18:42.660Z,83.94
2024-05-09T14:21:12.402Z,84.97
2024-05-09T14:23:39.500Z,85.40
2024-05-09T14:26:09.545Z,85.99
2024-05-09T14:28:36.929Z,86.40
2024-05-09T14:31:06.937Z,86.83
2024-05-09T14:33:36.966Z,86.63
2024-05-09T14:36:07.184Z,86.74
2024-05-09T14:38:34.281Z,87.46
2024-05-09T14:41:04.283Z,87.51
2024-05-09T14:43:32.539Z,88.33
2024-05-09T14:46:02.339Z,87.81
2024-05-09T14:48:30.042Z,88.93
2024-05-09T14:51:02.532Z,88.91
2024-05-09T14:53:29.678Z,89.11
2024-05-09T14:55:59.938Z,88.81
2024-05-09T14:58:27.324Z,89.87
2024-05-09T15:00:57.318Z,89.41
2024-05-09T15:03:24.644Z,89.54
2024-05-09T15:05:54.719Z,89.48
2024-05-09T15:08:24.588Z,88.95
2024-05-09T15:10:54.594Z,88.09
2024-05-09T15:13:21.997Z,87.40
2024-05-09T15:15:51.896Z,88.12
2024-05-09T15:18:19.645Z,88.01
2024-05-09T15:20:49.742Z,87.79
2024-05-09T15:23:16.958Z,88.08
2024-05-09T15:25:49.554Z,87.43
2024-05-09T15:28:17.032Z,87.88
2024-05-09T15:30:48.088Z,87.74
2024-05-09T15:33:15.624Z,87.67
2024-05-09T15:35:46.723Z,87.29
2024-05-09T15:38:15.276Z,87.35
2024-05-09T15:40:45.116Z,87.03
2024-05-09T15:43:15.048Z,87.19
2024-05-09T15:45:45.242Z,87.14
2024-05-09T15:48:12.641Z,86.73
2024-05-09T15:50:43.031Z,86.59
2024-05-09T15:53:11.528Z,86.61
2024-05-09T15:55:42.268Z,86.10
2024-05-09T15:58:09.970Z,85.69
2024-05-09T16:00:45.684Z,85.35
2024-05-09T16:03:15.009Z,85.95
2024-05-09T16:05:46.971Z,86.24
2024-05-09T16:08:15.735Z,86.73
2024-05-09T16:10:46.695Z,86.87
2024-05-09T16:13:14.996Z,86.80
2024-05-09T16:15:48.796Z,86.77
2024-05-09T16:18:16.330Z,86.16
2024-05-09T16:20:49.220Z,86.56
2024-05-09T16:23:17.719Z,86.83
2024-05-09T16:25:48.383Z,87.16
2024-05-09T16:28:16.686Z,86.95
2024-05-09T16:30:49.289Z,86.86
2024-05-09T16:33:19.613Z,86.65
2024-05-09T16:35:49.915Z,86.20
2024-05-09T16:38:17.149Z,86.50
2024-05-09T16:40:47.096Z,86.49
2024-05-09T16:43:14.393Z,86.95
2024-05-09T16:45:46.307Z,86.97
2024-05-09T16:48:19.238Z,86.84
2024-05-09T16:50:46.486Z,86.86
2024-05-09T16:53:16.429Z,87.31
2024-05-09T16:55:43.861Z,87.71
2024-05-09T16:58:14.374Z,88.16
2024-05-09T17:00:43.563Z,87.89
2024-05-09T17:03:16.453Z,88.58
2024-05-09T17:05:47.666Z,88.75
2024-05-09T17:08:19.986Z,87.63
2024-05-09T17:10:49.217Z,87.48
2024-05-09T17:13:20.076Z,87.14
2024-05-09T17:15:50.753Z,86.46
2024-05-09T17:18:21.144Z,85.61
2024-05-09T17:20:54.679Z,85.93
2024-05-09T17:23:22.232Z,86.79
2024-05-09T17:25:51.976Z,87.44
2024-05-09T17:28:19.523Z,87.24
2024-05-09T17:30:49.676Z,85.80
2024-05-09T17:33:17.043Z,85.96
2024-05-09T17:35:50.846Z,85.66
2024-05-09T17:38:23.357Z,85.21
2024-05-09T17:40:53.723Z,84.65
2024-05-09T17:43:21.500Z,84.65
2024-05-09T17:45:51.473Z,85.36
2024-05-09T17:48:19.092Z,84.41
2024-05-09T17:50:48.844Z,84.63
2024-05-09T17:53:16.142Z,82.85
2024-05-09T17:55:48.828Z,82.81
2024-05-09T17:58:16.293Z,82.61
2024-05-09T18:00:46.207Z,83.46
2024-05-09T18:03:14.959Z,83.08
2024-05-09T18:05:45.498Z,83.39
2024-05-09T18:08:13.271Z,83.76
2024-05-09T18:10:43.598Z,84.43
2024-05-09T18:13:13.756Z,84.75
2024-05-09T18:15:45.342Z,85.10
2024-05-09T18:18:13.159Z,85.33
2024-05-09T18:20:45.724Z,85.15
2024-05-09T18:23:15.989Z,85.38
2024-05-09T18:25:47.671Z,85.27
2024-05-09T18:28:18.204Z,84.91
2024-05-09T18:30:48.321Z,84.91
2024-05-09T18:33:16.376Z,85.68
2024-05-09T18:35:47.007Z,85.23
2024-05-09T18:38:14.630Z,85.90
2024-05-09T18:40:48.364Z,85.95
2024-05-09T18:43:26.196Z,85.94
2024-05-09T18:46:02.526Z,86.99
2024-05-09T18:48:30.108Z,85.87
2024-05-09T18:51:00.007Z,85.62
2024-05-09T18:53:27.191Z,85.96
2024-05-09T18:55:57.582Z,86.10
2024-05-09T18:58:27.494Z,85.88
2024-05-09T19:00:59.911Z,85.70
2024-05-09T19:03:28.928Z,85.67
2024-05-09T19:05:58.874Z,85.36
2024-05-09T19:08:26.201Z,85.21
2024-05-09T19:10:56.287Z,85.63
2024-05-09T19:13:25.304Z,85.77
2024-05-09T19:15:58.869Z,85.66
2024-05-09T19:18:26.354Z,86.15
2024-05-09T19:20:56.500Z,85.50
2024-05-09T19:23:24.306Z,84.37
2024-05-09T19:25:54.131Z,84.46
2024-05-09T19:28:21.367Z,84.82
2024-05-09T19:30:51.526Z,84.93
2024-05-09T19:33:21.562Z,84.86
2024-05-09T19:35:51.469Z,85.03
2024-05-09T19:38:18.692Z,85.34
2024-05-09T19:40:49.118Z,86.09
2024-05-09T19:43:16.904Z,86.78
2024-05-09T19:45:47.205Z,86.71
2024-05-09T19:48:15.047Z,86.68
2024-05-09T19:50:49.777Z,87.03
2024-05-09T19:53:19.052Z,86.79
2024-05-09T19:55:48.998Z,87.02
2024-05-09T19:58:16.647Z,87.29
2024-05-09T20:00:46.717Z,87.12
2024-05-09T20:03:15.665Z,86.86
2024-05-09T20:05:49.438Z,87.24
2024-05-09T20:08:16.847Z,87.66
2024-05-09T20:10:46.840Z,88.00
2024-05-09T20:13:14.452Z,87.93
2024-05-09T20:15:44.276Z,88.73
2024-05-09T20:18:11.859Z,88.89
2024-05-09T20:20:44.060Z,89.00
2024-05-09T20:23:15.212Z,88.91
2024-05-09T20:25:45.483Z,88.70
2024-05-09T20:28:12.744Z,89.25
2024-05-09T20:30:42.689Z,89.08
2024-05-09T20:33:10.455Z,88.50
2024-05-09T20:35:40.612Z,88.37
2024-05-09T20:38:07.915Z,88.54
2024-05-09T20:40:40.597Z,88.78
2024-05-09T20:43:08.809Z,88.92
2024-05-09T20:45:39.377Z,88.19
2024-05-09T20:48:08.843Z,88.92
2024-05-09T20:50:41.545Z,89.14
2024-05-09T20:53:11.196Z,89.08
2024-05-09T20:55:45.131Z,89.79
2024-05-09T20:58:13.212Z,89.79
2024-05-09T21:00:45.359Z,90.01
2024-05-09T21:03:15.835Z,89.92
2024-05-09T21:05:47.416Z,89.65
2024-05-09T21:08:15.527Z,90.41
2024-05-09T21:10:48.165Z,90.24
2024-05-09T21:13:15.567Z,90.44
2024-05-09T21:15:45.491Z,90.48
2024-05-09T21:18:12.844Z,90.60
2024-05-09T21:20:42.871Z,90.19
2024-05-09T21:23:10.032Z,90.23
2024-05-09T21:25:39.789Z,90.06
2024-05-09T21:28:09.765Z,90.50
2024-05-09T21:30:42.498Z,90.67
2024-05-09T21:33:12.853Z,91.41
2024-05-09T21:35:44.963Z,91.54
2024-05-09T21:38:14.369Z,91.78
2024-05-09T21:40:45.228Z,91.85
2024-05-09T21:43:15.364Z,92.11
2024-05-09T21:45:45.387Z,92.31
2024-05-09T21:48:13.354Z,92.17
2024-05-09T21:50:43.620Z,92.01
2024-05-09T21:53:11.230Z,91.94
2024-05-09T21:55:41.236Z,91.81
2024-05-09T21:58:08.566Z,91.90
2024-05-09T22:00:42.933Z,91.93
2024-05-09T22:03:11.875Z,92.25
2024-05-09T22:05:44.381Z,92.43
2024-05-09T22:08:12.434Z,92.66
2024-05-09T22:10:42.370Z,92.61
2024-05-09T22:13:09.854Z,92.73
2024-05-09T22:15:42.693Z,92.79
2024-05-09T22:18:11.018Z,92.57
2024-05-09T22:20:45.473Z,92.37
2024-05-09T22:23:14.903Z,91.83
2024-05-09T22:25:45.016Z,91.93
2024-05-09T22:28:14.644Z,91.76
2024-05-09T22:30:47.818Z,90.76
2024-05-09T22:33:15.505Z,90.36
2024-05-09T22:35:45.561Z,90.24
2024-05-09T22:38:12.848Z,90.31
2024-05-09T22:40:47.895Z,90.74
2024-05-09T22:43:17.874Z,90.65
2024-05-09T22:45:50.803Z,91.10
2024-05-09T22:48:18.437Z,90.97
2024-05-09T22:50:48.692Z,90.72
2024-05-09T22:53:16.110Z,90.87
2024-05-09T22:55:45.964Z,90.95
2024-05-09T22:58:13.222Z,90.62
2024-05-09T23:00:43.341Z,90.73
2024-05-09T23:03:15.789Z,90.80
2024-05-09T23:05:45.729Z,90.96
2024-05-09T23:08:12.910Z,90.98
2024-05-09T23:10:42.675Z,90.81
2024-05-09T23:13:10.378Z,90.96
2024-05-09T23:15:40.514Z,91.02
2024-05-09T23:18:08.137Z,91.11
2024-05-09T23:20:40.855Z,91.25
2024-05-09T23:23:09.187Z,91.15
2024-05-09T23:25:41.111Z,90.95
2024-05-09T23:28:08.739Z,90.84
2024-05-09T23:30:40.640Z,90.74
2024-05-09T23:33:10.751Z,90.70
2024-05-09T23:35:44.903Z,90.68
2024-05-09T23:38:12.402Z,90.19
2024-05-09T23:40:43.131Z,89.96
2024-05-09T23:43:11.835Z,89.95
2024-05-09T23:45:42.748Z,90.14
2024-05-09T23:48:10.737Z,89.93
2024-05-09T23:50:43.589Z,90.04
2024-05-09T23:53:11.370Z,90.14
2024-05-09T23:55:41.780Z,90.13
2024-05-09T23:58:09.305Z,89.96
